sensor_id;sensor_type;location;lat;lon;timestamp;pressure;altitude;pressure_sealevel;temperature;humidity
54816;BME280;40715;55.752;37.884;2023-11-19T00:00:32;99843.94;;;28.83;25.26
54816;BME280;40715;55.752;37.884;2023-11-19T00:02:59;99835.06;;;28.81;25.30
54816;BME280;40715;55.752;37.884;2023-11-19T00:05:26;99835.22;;;28.80;25.37
54816;BME280;40715;55.752;37.884;2023-11-19T00:07:54;99834.22;;;28.81;25.44
54816;BME280;40715;55.752;37.884;2023-11-19T00:10:21;99835.06;;;28.81;25.12
54816;BME280;40715;55.752;37.884;2023-11-19T00:12:49;99829.66;;;28.81;25.23
54816;BME280;40715;55.752;37.884;2023-11-19T00:15:17;99820.69;;;28.81;25.20
54816;BME280;40715;55.752;37.884;2023-11-19T00:17:46;99820.53;;;28.82;25.33
54816;BME280;40715;55.752;37.884;2023-11-19T00:20:16;99818.81;;;28.81;25.23
54816;BME280;40715;55.752;37.884;2023-11-19T00:22:43;99821.53;;;28.81;25.38
54816;BME280;40715;55.752;37.884;2023-11-19T00:25:13;99826.78;;;28.83;25.29
54816;BME280;40715;55.752;37.884;2023-11-19T00:27:40;99826.63;;;28.84;25.34
54816;BME280;40715;55.752;37.884;2023-11-19T00:30:07;99822.50;;;28.80;25.19
54816;BME280;40715;55.752;37.884;2023-11-19T00:32:35;99812.38;;;28.82;25.24
54816;BME280;40715;55.752;37.884;2023-11-19T00:35:04;99802.16;;;28.76;25.37
54816;BME280;40715;55.752;37.884;2023-11-19T00:37:31;99814.22;;;28.82;25.12
54816;BME280;40715;55.752;37.884;2023-11-19T00:39:58;99811.50;;;28.82;25.17
54816;BME280;40715;55.752;37.884;2023-11-19T00:42:25;99807.13;;;28.81;25.25
54816;BME280;40715;55.752;37.884;2023-11-19T00:44:52;99813.53;;;28.80;25.24
54816;BME280;40715;55.752;37.884;2023-11-19T00:47:19;99808.25;;;28.78;25.17
54816;BME280;40715;55.752;37.884;2023-11-19T00:49:49;99806.53;;;28.77;25.35
54816;BME280;40715;55.752;37.884;2023-11-19T00:52:17;99811.97;;;28.77;25.21
54816;BME280;40715;55.752;37.884;2023-11-19T00:54:45;99807.41;;;28.78;25.12
54816;BME280;40715;55.752;37.884;2023-11-19T00:57:12;99802.16;;;28.76;25.13
54816;BME280;40715;55.752;37.884;2023-11-19T00:59:41;99797.00;;;28.73;25.26
54816;BME280;40715;55.752;37.884;2023-11-19T01:02:08;99800.28;;;28.77;25.10
54816;BME280;40715;55.752;37.884;2023-11-19T01:04:36;99800.28;;;28.77;25.18
54816;BME280;40715;55.752;37.884;2023-11-19T01:07:04;99797.88;;;28.73;25.28
54816;BME280;40715;55.752;37.884;2023-11-19T01:09:32;99792.44;;;28.73;25.15
54816;BME280;40715;55.752;37.884;2023-11-19T01:12:02;99791.41;;;28.74;25.26
54816;BME280;40715;55.752;37.884;2023-11-19T01:14:30;99791.56;;;28.73;25.31
54816;BME280;40715;55.752;37.884;2023-11-19T01:16:57;99788.16;;;28.71;25.28
54816;BME280;40715;55.752;37.884;2023-11-19T01:19:24;99775.44;;;28.71;25.23
54816;BME280;40715;55.752;37.884;2023-11-19T01:21:51;99772.75;;;28.71;25.42
54816;BME280;40715;55.752;37.884;2023-11-19T01:24:18;99769.88;;;28.73;25.35
54816;BME280;40715;55.752;37.884;2023-11-19T01:26:46;99761.06;;;28.71;25.22
54816;BME280;40715;55.752;37.884;2023-11-19T01:29:13;99755.63;;;28.71;25.20
54816;BME280;40715;55.752;37.884;2023-11-19T01:31:45;99763.75;;;28.71;25.21
54816;BME280;40715;55.752;37.884;2023-11-19T01:34:13;99757.34;;;28.72;25.28
54816;BME280;40715;55.752;37.884;2023-11-19T01:36:40;99758.66;;;28.68;25.21
54816;BME280;40715;55.752;37.884;2023-11-19T01:39:07;99750.50;;;28.68;25.40
54816;BME280;40715;55.752;37.884;2023-11-19T01:41:37;99756.94;;;28.67;25.28
54816;BME280;40715;55.752;37.884;2023-11-19T01:44:07;99763.75;;;28.71;25.08
54816;BME280;40715;55.752;37.884;2023-11-19T01:46:35;99756.25;;;28.65;25.30
54816;BME280;40715;55.752;37.884;2023-11-19T01:49:03;99754.38;;;28.65;25.23
54816;BME280;40715;55.752;37.884;2023-11-19T01:51:32;99755.38;;;28.64;25.32
54816;BME280;40715;55.752;37.884;2023-11-19T01:53:59;99755.22;;;28.66;25.21
54816;BME280;40715;55.752;37.884;2023-11-19T01:56:26;99748.94;;;28.65;25.17
54816;BME280;40715;55.752;37.884;2023-11-19T01:58:54;99748.94;;;28.65;25.20
54816;BME280;40715;55.752;37.884;2023-11-19T02:01:22;99755.22;;;28.66;25.25
54816;BME280;40715;55.752;37.884;2023-11-19T02:03:51;99757.09;;;28.65;25.27
54816;BME280;40715;55.752;37.884;2023-11-19T02:06:18;99759.94;;;28.64;25.21
54816;BME280;40715;55.752;37.884;2023-11-19T02:08:46;99768.75;;;28.66;25.22
54816;BME280;40715;55.752;37.884;2023-11-19T02:11:13;99746.38;;;28.64;25.18
54816;BME280;40715;55.752;37.884;2023-11-19T02:13:40;99760.94;;;28.63;25.05
54816;BME280;40715;55.752;37.884;2023-11-19T02:16:08;99758.50;;;28.59;25.11
54816;BME280;40715;55.752;37.884;2023-11-19T02:18:38;99746.66;;;28.61;25.33
54816;BME280;40715;55.752;37.884;2023-11-19T02:21:05;99754.94;;;28.59;25.10
54816;BME280;40715;55.752;37.884;2023-11-19T02:23:32;99749.66;;;28.57;25.26
54816;BME280;40715;55.752;37.884;2023-11-19T02:26:05;99744.81;;;28.51;25.41
54816;BME280;40715;55.752;37.884;2023-11-19T02:28:36;99748.94;;;28.55;25.24
54816;BME280;40715;55.752;37.884;2023-11-19T02:31:04;99745.53;;;28.53;25.26
54816;BME280;40715;55.752;37.884;2023-11-19T02:33:37;99745.69;;;28.52;25.14
54816;BME280;40715;55.752;37.884;2023-11-19T02:36:06;99741.41;;;28.49;25.29
54816;BME280;40715;55.752;37.884;2023-11-19T02:38:36;99748.41;;;28.52;25.26
54816;BME280;40715;55.752;37.884;2023-11-19T02:41:04;99750.25;;;28.51;25.27
54816;BME280;40715;55.752;37.884;2023-11-19T02:43:37;99745.97;;;28.49;25.25
54816;BME280;40715;55.752;37.884;2023-11-19T02:46:05;99746.84;;;28.49;25.29
54816;BME280;40715;55.752;37.884;2023-11-19T02:48:38;99738.69;;;28.49;25.20
54816;BME280;40715;55.752;37.884;2023-11-19T02:51:05;99743.25;;;28.49;25.30
54816;BME280;40715;55.752;37.884;2023-11-19T02:53:36;99742.09;;;28.51;25.26
54816;BME280;40715;55.752;37.884;2023-11-19T02:56:07;99747.69;;;28.50;25.25
54816;BME280;40715;55.752;37.884;2023-11-19T02:58:47;99748.53;;;28.50;25.19
54816;BME280;40715;55.752;37.884;2023-11-19T03:01:21;99748.66;;;28.49;25.37
54816;BME280;40715;55.752;37.884;2023-11-19T03:03:50;99744.28;;;28.48;25.14
54816;BME280;40715;55.752;37.884;2023-11-19T03:06:24;99742.72;;;28.45;25.20
54816;BME280;40715;55.752;37.884;2023-11-19T03:08:51;99743.41;;;28.47;25.26
54816;BME280;40715;55.752;37.884;2023-11-19T03:11:18;99740.69;;;28.47;25.15
54816;BME280;40715;55.752;37.884;2023-11-19T03:13:45;99731.41;;;28.50;25.19
54816;BME280;40715;55.752;37.884;2023-11-19T03:16:13;99736.97;;;28.48;25.10
54816;BME280;40715;55.752;37.884;2023-11-19T03:18:40;99743.25;;;28.49;25.15
54816;BME280;40715;55.752;37.884;2023-11-19T03:21:07;99739.69;;;28.48;25.04
54816;BME280;40715;55.752;37.884;2023-11-19T03:23:35;99739.53;;;28.50;25.29
54816;BME280;40715;55.752;37.884;2023-11-19T03:26:02;99740.53;;;28.49;25.20
54816;BME280;40715;55.752;37.884;2023-11-19T03:28:32;99731.56;;;28.48;25.06
54816;BME280;40715;55.752;37.884;2023-11-19T03:31:00;99743.25;;;28.49;25.12
54816;BME280;40715;55.752;37.884;2023-11-19T03:33:27;99743.25;;;28.49;25.19
54816;BME280;40715;55.752;37.884;2023-11-19T03:35:56;99733.44;;;28.48;25.22
54816;BME280;40715;55.752;37.884;2023-11-19T03:38:24;99732.41;;;28.49;25.15
54816;BME280;40715;55.752;37.884;2023-11-19T03:40:54;99738.84;;;28.48;25.12
54816;BME280;40715;55.752;37.884;2023-11-19T03:43:20;99737.97;;;28.47;25.23
54816;BME280;40715;55.752;37.884;2023-11-19T03:45:47;99744.41;;;28.46;25.24
54816;BME280;40715;55.752;37.884;2023-11-19T03:48:14;99731.88;;;28.45;25.13
54816;BME280;40715;55.752;37.884;2023-11-19T03:50:45;99734.28;;;28.48;25.15
54816;BME280;40715;55.752;37.884;2023-11-19T03:53:12;99722.59;;;28.48;25.13
54816;BME280;40715;55.752;37.884;2023-11-19T03:55:40;99727.28;;;28.46;25.21
54816;BME280;40715;55.752;37.884;2023-11-19T03:58:07;99724.44;;;28.47;25.14
54816;BME280;40715;55.752;37.884;2023-11-19T04:00:34;99724.28;;;28.49;25.17
54816;BME280;40715;55.752;37.884;2023-11-19T04:03:02;99706.47;;;28.46;25.10
54816;BME280;40715;55.752;37.884;2023-11-19T04:05:29;99717.88;;;28.50;25.16
54816;BME280;40715;55.752;37.884;2023-11-19T04:07:56;99706.19;;;28.49;25.16
54816;BME280;40715;55.752;37.884;2023-11-19T04:10:23;99707.75;;;28.52;25.08
54816;BME280;40715;55.752;37.884;2023-11-19T04:12:50;99697.91;;;28.51;24.89
54816;BME280;40715;55.752;37.884;2023-11-19T04:15:17;99703.88;;;28.54;25.13
54816;BME280;40715;55.752;37.884;2023-11-19T04:17:44;99695.72;;;28.54;25.10
54816;BME280;40715;55.752;37.884;2023-11-19T04:20:11;99691.34;;;28.53;25.00
54816;BME280;40715;55.752;37.884;2023-11-19T04:22:41;99685.19;;;28.51;25.06
54816;BME280;40715;55.752;37.884;2023-11-19T04:25:08;99690.31;;;28.54;25.14
54816;BME280;40715;55.752;37.884;2023-11-19T04:27:35;99679.78;;;28.51;25.13
54816;BME280;40715;55.752;37.884;2023-11-19T04:30:02;99677.47;;;28.56;25.10
54816;BME280;40715;55.752;37.884;2023-11-19T04:32:30;99685.75;;;28.55;24.88
54816;BME280;40715;55.752;37.884;2023-11-19T04:34:57;99686.75;;;28.54;24.92
54816;BME280;40715;55.752;37.884;2023-11-19T04:37:24;99694.59;;;28.57;24.70
54816;BME280;40715;55.752;37.884;2023-11-19T04:39:51;99697.28;;;28.57;24.93
54816;BME280;40715;55.752;37.884;2023-11-19T04:42:18;99693.03;;;28.54;24.97
54816;BME280;40715;55.752;37.884;2023-11-19T04:44:46;99693.59;;;28.58;24.75
54816;BME280;40715;55.752;37.884;2023-11-19T04:47:13;99687.44;;;28.56;25.01
54816;BME280;40715;55.752;37.884;2023-11-19T04:49:41;99684.19;;;28.52;24.98
54816;BME280;40715;55.752;37.884;2023-11-19T04:52:11;99683.34;;;28.52;24.99
54816;BME280;40715;55.752;37.884;2023-11-19T04:54:45;99700.16;;;28.55;25.06
54816;BME280;40715;55.752;37.884;2023-11-19T04:57:12;99688.47;;;28.55;25.01
54816;BME280;40715;55.752;37.884;2023-11-19T04:59:40;99701.00;;;28.56;24.87
54816;BME280;40715;55.752;37.884;2023-11-19T05:02:08;99701.00;;;28.56;24.88
54816;BME280;40715;55.752;37.884;2023-11-19T05:04:35;99701.16;;;28.54;24.78
54816;BME280;40715;55.752;37.884;2023-11-19T05:07:04;99704.44;;;28.58;24.86
54816;BME280;40715;55.752;37.884;2023-11-19T05:09:31;99706.31;;;28.57;24.96
54816;BME280;40715;55.752;37.884;2023-11-19T05:11:58;99711.84;;;28.56;24.80
54816;BME280;40715;55.752;37.884;2023-11-19T05:14:25;99704.72;;;28.55;24.99
54816;BME280;40715;55.752;37.884;2023-11-19T05:16:52;99707.28;;;28.56;24.91
54816;BME280;40715;55.752;37.884;2023-11-19T05:19:19;99706.41;;;28.56;24.94
54816;BME280;40715;55.752;37.884;2023-11-19T05:21:47;99697.44;;;28.55;24.84
54816;BME280;40715;55.752;37.884;2023-11-19T05:24:14;99703.88;;;28.54;24.83
54816;BME280;40715;55.752;37.884;2023-11-19T05:26:41;99703.72;;;28.56;24.73
54816;BME280;40715;55.752;37.884;2023-11-19T05:29:08;99716.28;;;28.57;24.81
54816;BME280;40715;55.752;37.884;2023-11-19T05:31:35;99716.41;;;28.55;24.85
54816;BME280;40715;55.752;37.884;2023-11-19T05:34:02;99717.16;;;28.57;24.71
54816;BME280;40715;55.752;37.884;2023-11-19T05:36:29;99718.13;;;28.56;24.87
54816;BME280;40715;55.752;37.884;2023-11-19T05:38:56;99721.84;;;28.55;24.81
54816;BME280;40715;55.752;37.884;2023-11-19T05:41:23;99720.13;;;28.54;24.83
54816;BME280;40715;55.752;37.884;2023-11-19T05:43:51;99722.84;;;28.54;24.93
54816;BME280;40715;55.752;37.884;2023-11-19T05:46:18;99714.69;;;28.54;24.94
54816;BME280;40715;55.752;37.884;2023-11-19T05:48:47;99714.56;;;28.56;24.83
54816;BME280;40715;55.752;37.884;2023-11-19T05:51:14;99712.88;;;28.55;24.83
54816;BME280;40715;55.752;37.884;2023-11-19T05:53:42;99712.72;;;28.56;24.84
54816;BME280;40715;55.752;37.884;2023-11-19T05:56:09;99715.56;;;28.55;24.83
54816;BME280;40715;55.752;37.884;2023-11-19T05:58:37;99721.69;;;28.57;24.94
54816;BME280;40715;55.752;37.884;2023-11-19T06:01:05;99708.28;;;28.55;24.74
54816;BME280;40715;55.752;37.884;2023-11-19T06:03:34;99711.84;;;28.56;24.81
54816;BME280;40715;55.752;37.884;2023-11-19T06:06:01;99713.72;;;28.55;24.77
54816;BME280;40715;55.752;37.884;2023-11-19T06:08:28;99712.56;;;28.58;24.72
54816;BME280;40715;55.752;37.884;2023-11-19T06:10:56;99709.13;;;28.56;24.83
54816;BME280;40715;55.752;37.884;2023-11-19T06:13:23;99705.72;;;28.54;24.77
54816;BME280;40715;55.752;37.884;2023-11-19T06:15:51;99701.88;;;28.56;24.69
54816;BME280;40715;55.752;37.884;2023-11-19T06:18:18;99700.16;;;28.55;24.87
54816;BME280;40715;55.752;37.884;2023-11-19T06:20:47;99703.59;;;28.57;24.79
54816;BME280;40715;55.752;37.884;2023-11-19T06:23:14;99697.88;;;28.61;24.73
54816;BME280;40715;55.752;37.884;2023-11-19T06:25:41;99708.59;;;28.62;24.70
54816;BME280;40715;55.752;37.884;2023-11-19T06:28:08;99710.44;;;28.62;24.78
54816;BME280;40715;55.752;37.884;2023-11-19T06:30:35;99708.44;;;28.64;24.50
54816;BME280;40715;55.752;37.884;2023-11-19T06:33:02;99703.72;;;28.66;24.83
54816;BME280;40715;55.752;37.884;2023-11-19T06:35:30;99701.00;;;28.66;24.56
54816;BME280;40715;55.752;37.884;2023-11-19T06:38:04;99702.88;;;28.65;24.78
54816;BME280;40715;55.752;37.884;2023-11-19T06:40:34;99704.72;;;28.65;24.74
54816;BME280;40715;55.752;37.884;2023-11-19T06:43:04;99700.47;;;28.62;24.82
54816;BME280;40715;55.752;37.884;2023-11-19T06:45:31;99698.72;;;28.61;25.05
54816;BME280;40715;55.752;37.884;2023-11-19T06:48:03;99694.16;;;28.62;25.10
54816;BME280;40715;55.752;37.884;2023-11-19T06:50:32;99691.31;;;28.63;24.76
54816;BME280;40715;55.752;37.884;2023-11-19T06:52:59;99686.75;;;28.64;25.03
54816;BME280;40715;55.752;37.884;2023-11-19T06:55:26;99684.03;;;28.64;24.88
54816;BME280;40715;55.752;37.884;2023-11-19T06:57:53;99688.47;;;28.65;24.91
54816;BME280;40715;55.752;37.884;2023-11-19T07:00:20;99701.00;;;28.66;24.84
54816;BME280;40715;55.752;37.884;2023-11-19T07:02:47;99692.31;;;28.62;24.88
54816;BME280;40715;55.752;37.884;2023-11-19T07:05:15;99693.03;;;28.64;24.81
54816;BME280;40715;55.752;37.884;2023-11-19T07:07:42;99688.47;;;28.65;24.75
54816;BME280;40715;55.752;37.884;2023-11-19T07:10:09;99688.75;;;28.62;24.79
54816;BME280;40715;55.752;37.884;2023-11-19T07:12:36;99688.59;;;28.63;24.79
54816;BME280;40715;55.752;37.884;2023-11-19T07:15:04;99693.03;;;28.64;24.95
54816;BME280;40715;55.752;37.884;2023-11-19T07:17:32;99691.88;;;28.67;24.86
54816;BME280;40715;55.752;37.884;2023-11-19T07:19:59;99694.72;;;28.65;24.88
54816;BME280;40715;55.752;37.884;2023-11-19T07:22:26;99697.44;;;28.65;25.15
54816;BME280;40715;55.752;37.884;2023-11-19T07:24:53;99698.44;;;28.64;25.10
54816;BME280;40715;55.752;37.884;2023-11-19T07:27:20;99699.31;;;28.65;25.36
54816;BME280;40715;55.752;37.884;2023-11-19T07:29:47;99705.72;;;28.64;25.54
54816;BME280;40715;55.752;37.884;2023-11-19T07:32:15;99705.88;;;28.62;25.57
54816;BME280;40715;55.752;37.884;2023-11-19T07:34:42;99705.88;;;28.62;25.75
54816;BME280;40715;55.752;37.884;2023-11-19T07:37:09;99702.28;;;28.62;25.89
54816;BME280;40715;55.752;37.884;2023-11-19T07:39:36;99695.03;;;28.62;25.92
54816;BME280;40715;55.752;37.884;2023-11-19T07:42:04;99699.44;;;28.63;25.88
54816;BME280;40715;55.752;37.884;2023-11-19T07:44:32;99700.31;;;28.64;26.00
54816;BME280;40715;55.752;37.884;2023-11-19T07:46:59;99694.72;;;28.65;26.15
54816;BME280;40715;55.752;37.884;2023-11-19T07:49:26;99702.88;;;28.65;25.94
54816;BME280;40715;55.752;37.884;2023-11-19T07:51:52;99698.13;;;28.67;26.09
54816;BME280;40715;55.752;37.884;2023-11-19T07:54:19;99700.84;;;28.67;26.22
54816;BME280;40715;55.752;37.884;2023-11-19T07:56:48;99699.69;;;28.70;26.22
54816;BME280;40715;55.752;37.884;2023-11-19T07:59:16;99702.09;;;28.73;26.07
54816;BME280;40715;55.752;37.884;2023-11-19T08:01:43;99698.25;;;28.75;25.99
54816;BME280;40715;55.752;37.884;2023-11-19T08:04:10;99696.09;;;28.79;26.08
54816;BME280;40715;55.752;37.884;2023-11-19T08:06:38;99694.25;;;28.80;26.16
54816;BME280;40715;55.752;37.884;2023-11-19T08:09:05;99683.09;;;28.83;26.11
54816;BME280;40715;55.752;37.884;2023-11-19T08:11:33;99704.47;;;28.86;26.12
54816;BME280;40715;55.752;37.884;2023-11-19T08:14:00;99689.22;;;28.85;26.03
54816;BME280;40715;55.752;37.884;2023-11-19T08:16:27;99683.50;;;28.88;25.94
54816;BME280;40715;55.752;37.884;2023-11-19T08:18:54;99681.94;;;28.85;26.09
54816;BME280;40715;55.752;37.884;2023-11-19T08:21:21;99672.66;;;28.88;26.00
54816;BME280;40715;55.752;37.884;2023-11-19T08:23:49;99673.50;;;28.88;26.00
54816;BME280;40715;55.752;37.884;2023-11-19T08:26:16;99669.47;;;28.92;26.08
54816;BME280;40715;55.752;37.884;2023-11-19T08:28:46;99663.59;;;28.97;25.87
54816;BME280;40715;55.752;37.884;2023-11-19T08:31:14;99665.47;;;28.97;25.87
54816;BME280;40715;55.752;37.884;2023-11-19T08:33:41;99657.16;;;28.98;25.95
54816;BME280;40715;55.752;37.884;2023-11-19T08:36:08;99659.19;;;28.96;25.78
54816;BME280;40715;55.752;37.884;2023-11-19T08:38:35;99664.31;;;28.99;26.03
54816;BME280;40715;55.752;37.884;2023-11-19T08:41:02;99672.28;;;29.01;25.80
54816;BME280;40715;55.752;37.884;2023-11-19T08:43:29;99667.72;;;29.01;25.64
54816;BME280;40715;55.752;37.884;2023-11-19T08:45:58;99663.44;;;28.99;26.00
54816;BME280;40715;55.752;37.884;2023-11-19T08:48:25;99657.00;;;29.00;25.64
54816;BME280;40715;55.752;37.884;2023-11-19T08:50:53;99659.19;;;28.96;25.89
54816;BME280;40715;55.752;37.884;2023-11-19T08:53:20;99664.31;;;28.99;25.81
54816;BME280;40715;55.752;37.884;2023-11-19T08:55:47;99653.78;;;28.96;25.91
54816;BME280;40715;55.752;37.884;2023-11-19T08:58:14;99656.47;;;28.96;25.86
54816;BME280;40715;55.752;37.884;2023-11-19T09:00:41;99661.59;;;28.99;26.06
54816;BME280;40715;55.752;37.884;2023-11-19T09:03:08;99659.03;;;28.98;26.17
54816;BME280;40715;55.752;37.884;2023-11-19T09:05:36;99659.03;;;28.98;26.32
54816;BME280;40715;55.752;37.884;2023-11-19T09:08:04;99656.19;;;28.99;26.25
54816;BME280;40715;55.752;37.884;2023-11-19T09:10:31;99649.19;;;28.97;26.47
54816;BME280;40715;55.752;37.884;2023-11-19T09:12:58;99650.91;;;28.98;26.58
54816;BME280;40715;55.752;37.884;2023-11-19T09:15:25;99653.63;;;28.98;26.57
54816;BME280;40715;55.752;37.884;2023-11-19T09:17:52;99640.06;;;28.98;26.81
54816;BME280;40715;55.752;37.884;2023-11-19T09:20:19;99636.47;;;28.97;26.65
54816;BME280;40715;55.752;37.884;2023-11-19T09:22:46;99635.78;;;28.95;26.86
54816;BME280;40715;55.752;37.884;2023-11-19T09:25:13;99635.94;;;28.93;27.06
54816;BME280;40715;55.752;37.884;2023-11-19T09:27:44;99635.38;;;28.90;27.18
54816;BME280;40715;55.752;37.884;2023-11-19T09:30:11;99639.13;;;28.89;27.12
54816;BME280;40715;55.752;37.884;2023-11-19T09:32:39;99633.13;;;28.85;27.36
54816;BME280;40715;55.752;37.884;2023-11-19T09:35:07;99635.00;;;28.85;27.40
54816;BME280;40715;55.752;37.884;2023-11-19T09:37:35;99631.56;;;28.83;27.55
54816;BME280;40715;55.752;37.884;2023-11-19T09:40:02;99623.75;;;28.80;27.63
54816;BME280;40715;55.752;37.884;2023-11-19T09:42:33;99618.31;;;28.80;27.81
54816;BME280;40715;55.752;37.884;2023-11-19T09:45:13;99610.75;;;28.83;27.97
54816;BME280;40715;55.752;37.884;2023-11-19T09:47:44;99612.22;;;28.78;27.94
54816;BME280;40715;55.752;37.884;2023-11-19T09:50:17;99616.59;;;28.79;28.17
54816;BME280;40715;55.752;37.884;2023-11-19T09:52:46;99608.63;;;28.77;28.17
54816;BME280;40715;55.752;37.884;2023-11-19T09:55:14;99612.22;;;28.78;28.06
54816;BME280;40715;55.752;37.884;2023-11-19T09:57:41;99603.22;;;28.77;27.96
54816;BME280;40715;55.752;37.884;2023-11-19T10:00:12;99605.06;;;28.77;27.84
54816;BME280;40715;55.752;37.884;2023-11-19T10:02:43;99596.94;;;28.77;28.20
54816;BME280;40715;55.752;37.884;2023-11-19T10:05:13;99586.78;;;28.79;28.26
54816;BME280;40715;55.752;37.884;2023-11-19T10:07:42;99590.38;;;28.79;28.07
54816;BME280;40715;55.752;37.884;2023-11-19T10:10:09;99584.22;;;28.77;28.16
54816;BME280;40715;55.752;37.884;2023-11-19T10:12:40;99582.25;;;28.79;27.95
54816;BME280;40715;55.752;37.884;2023-11-19T10:15:24;99578.97;;;28.75;28.08
54816;BME280;40715;55.752;37.884;2023-11-19T10:17:56;99582.00;;;28.72;27.98
54816;BME280;40715;55.752;37.884;2023-11-19T10:20:23;99574.00;;;28.71;27.95
54816;BME280;40715;55.752;37.884;2023-11-19T10:22:54;99569.59;;;28.70;27.85
54816;BME280;40715;55.752;37.884;2023-11-19T10:25:26;99578.88;;;28.67;27.85
54816;BME280;40715;55.752;37.884;2023-11-19T10:27:54;99575.63;;;28.64;27.55
54816;BME280;40715;55.752;37.884;2023-11-19T10:30:23;99571.63;;;28.58;27.69
54816;BME280;40715;55.752;37.884;2023-11-19T10:33:12;99568.50;;;28.63;27.65
54816;BME280;40715;55.752;37.884;2023-11-19T10:35:52;99572.09;;;28.53;28.33
54816;BME280;40715;55.752;37.884;2023-11-19T10:38:29;99569.53;;;28.52;28.93
54816;BME280;40715;55.752;37.884;2023-11-19T10:40:57;99572.47;;;28.58;29.15
54816;BME280;40715;55.752;37.884;2023-11-19T10:43:24;99570.19;;;28.64;29.15
54816;BME280;40715;55.752;37.884;2023-11-19T10:45:52;99569.75;;;28.68;29.18
54816;BME280;40715;55.752;37.884;2023-11-19T10:48:19;99570.56;;;28.69;29.28
54816;BME280;40715;55.752;37.884;2023-11-19T10:50:53;99568.44;;;28.72;28.86
54816;BME280;40715;55.752;37.884;2023-11-19T10:53:23;99565.56;;;28.74;28.85
54816;BME280;40715;55.752;37.884;2023-11-19T10:55:55;99562.84;;;28.74;29.03
54816;BME280;40715;55.752;37.884;2023-11-19T10:58:28;99573.38;;;28.77;29.35
54816;BME280;40715;55.752;37.884;2023-11-19T11:00:57;99566.13;;;28.78;29.18
54816;BME280;40715;55.752;37.884;2023-11-19T11:03:25;99560.53;;;28.79;29.30
54816;BME280;40715;55.752;37.884;2023-11-19T11:05:55;99558.69;;;28.80;29.23
54816;BME280;40715;55.752;37.884;2023-11-19T11:08:23;99564.25;;;28.78;29.17
54816;BME280;40715;55.752;37.884;2023-11-19T11:10:56;99564.41;;;28.77;29.23
54816;BME280;40715;55.752;37.884;2023-11-19T11:13:28;99565.09;;;28.79;29.04
54816;BME280;40715;55.752;37.884;2023-11-19T11:15:56;99571.81;;;28.74;29.13
54816;BME280;40715;55.752;37.884;2023-11-19T11:18:27;99567.28;;;28.75;29.29
54816;BME280;40715;55.752;37.884;2023-11-19T11:21:01;99573.16;;;28.70;29.60
54816;BME280;40715;55.752;37.884;2023-11-19T11:29:39;99572.13;;;28.71;28.93
54816;BME280;40715;55.752;37.884;2023-11-19T11:32:21;99561.75;;;28.67;28.33
54816;BME280;40715;55.752;37.884;2023-11-19T11:34:58;99564.19;;;28.60;28.33
54816;BME280;40715;55.752;37.884;2023-11-19T11:37:34;99565.22;;;28.59;28.37
54816;BME280;40715;55.752;37.884;2023-11-19T11:40:05;99562.50;;;28.59;28.35
54816;BME280;40715;55.752;37.884;2023-11-19T11:42:37;99563.66;;;28.56;28.29
54816;BME280;40715;55.752;37.884;2023-11-19T11:45:06;99556.00;;;28.52;28.22
54816;BME280;40715;55.752;37.884;2023-11-19T11:50:14;99554.44;;;28.49;27.92
54816;BME280;40715;55.752;37.884;2023-11-19T11:55:36;99558.44;;;28.45;27.73
54816;BME280;40715;55.752;37.884;2023-11-19T11:58:05;99558.91;;;28.40;28.07
54816;BME280;40715;55.752;37.884;2023-11-19T12:00:37;99553.47;;;28.40;28.38
54816;BME280;40715;55.752;37.884;2023-11-19T12:03:06;99561.63;;;28.40;28.61
54816;BME280;40715;55.752;37.884;2023-11-19T12:05:40;99557.72;;;28.43;28.75
54816;BME280;40715;55.752;37.884;2023-11-19T12:08:10;99557.72;;;28.43;29.03
54816;BME280;40715;55.752;37.884;2023-11-19T12:10:46;99549.16;;;28.48;29.08
54816;BME280;40715;55.752;37.884;2023-11-19T12:13:15;99552.88;;;28.47;28.87
54816;BME280;40715;55.752;37.884;2023-11-19T12:18:33;99549.59;;;28.43;29.08
54816;BME280;40715;55.752;37.884;2023-11-19T12:21:00;99547.91;;;28.42;29.20
54816;BME280;40715;55.752;37.884;2023-11-19T12:23:32;99548.06;;;28.40;29.10
54816;BME280;40715;55.752;37.884;2023-11-19T12:25:59;99548.59;;;28.44;28.95
54816;BME280;40715;55.752;37.884;2023-11-19T12:28:26;99551.16;;;28.46;29.37
54816;BME280;40715;55.752;37.884;2023-11-19T12:31:07;99553.28;;;28.52;29.00
54816;BME280;40715;55.752;37.884;2023-11-19T12:33:36;99541.19;;;28.46;28.86
54816;BME280;40715;55.752;37.884;2023-11-19T12:36:05;99546.44;;;28.48;28.84
54816;BME280;40715;55.752;37.884;2023-11-19T12:38:32;99526.47;;;28.49;28.84
54816;BME280;40715;55.752;37.884;2023-11-19T12:41:06;99538.31;;;28.48;28.96
54816;BME280;40715;55.752;37.884;2023-11-19T12:43:33;99530.72;;;28.51;28.80
54816;BME280;40715;55.752;37.884;2023-11-19T12:46:37;99526.22;;;28.70;28.86
54816;BME280;40715;55.752;37.884;2023-11-19T12:49:03;99523.84;;;28.57;28.77
54816;BME280;40715;55.752;37.884;2023-11-19T12:51:32;99517.34;;;28.50;28.94
54816;BME280;40715;55.752;37.884;2023-11-19T12:54:00;99520.28;;;28.56;28.98
54816;BME280;40715;55.752;37.884;2023-11-19T12:56:27;99532.69;;;28.59;29.04
54816;BME280;40715;55.752;37.884;2023-11-19T12:58:54;99520.53;;;28.63;29.13
54816;BME280;40715;55.752;37.884;2023-11-19T13:01:21;99522.09;;;28.66;28.98
54816;BME280;40715;55.752;37.884;2023-11-19T13:03:48;99521.25;;;28.65;29.09
54816;BME280;40715;55.752;37.884;2023-11-19T13:06:16;99514.53;;;28.69;29.10
54816;BME280;40715;55.752;37.884;2023-11-19T13:08:45;99510.94;;;28.69;29.32
54816;BME280;40715;55.752;37.884;2023-11-19T13:11:13;99500.66;;;28.72;29.25